Terminal Aerodrome Forecast
Issued by NWS

Home | Current Version | Previous Version | Text Only | Print | Product List | Glossary On
Versions: 1 2 3 4 5 6 7 8 9 10 11 12 13 14 15 16 17 18
000
FTUS46 KOTX 232122 AAA
TAFCOE
TAF AMD
KCOE 232122Z 2321/2418 24015G25KT P6SM VCSH SCT025 BKN040
     FM240600 15005KT P6SM -RA BKN030 OVC050
     FM241000 15007KT P6SM -RA OVC015
      AMD LTD TO CLD VIS AND WIND=

USA.gov is the U.S. government's official web portal to all federal, state and local government web resources and services.